SWR542D LSZH-EGLL
Flight info
| Callsign | SWR542D |
|---|---|
| Flight time | N/A |
| Altitude | 34000 |
| Route | N0443F340 VEBIT T10 TORPA DCT REKLA DCT RLP DCT ROTSI DCT KOTUN DCT NINAL DCT ABNUR DCT DIMAL DCT ALESO |
| Aircraft | A21N/M-SDE2E3FGHIJ1RWXYZ/LB1 |
Departure
| Time | 2026-05-05 05:50 |
|---|---|
| Airport | Zürich Airport (LSZH) |
Arrival
| Time | N/A |
|---|---|
| Airport | London Heathrow Airport (EGLL) |
| Time | Latitude | Longitude | Altitude | Speed | Heading |
|---|---|---|---|---|---|
| 2026-05-05 05:36 | 47.46191 | 8.55188 | 1406 ft | 0 kts | 185° |
| 2026-05-05 05:44 | 47.46208 | 8.55191 | 1407 ft | 4 kts | 186° |
| 2026-05-05 05:44 | 47.46235 | 8.55195 | 1406 ft | 4 kts | 186° |
| 2026-05-05 05:44 | 47.46259 | 8.55198 | 1405 ft | 4 kts | 167° |
| 2026-05-05 05:44 | 47.46276 | 8.55179 | 1407 ft | 4 kts | 110° |
| 2026-05-05 05:45 | 47.46281 | 8.55150 | 1403 ft | 1 kts | 97° |
| 2026-05-05 05:45 | 47.46281 | 8.55144 | 1404 ft | 1 kts | 97° |
| 2026-05-05 05:46 | 47.46281 | 8.55152 | 1403 ft | 3 kts | 97° |
| 2026-05-05 05:47 | 47.46269 | 8.55289 | 1400 ft | 23 kts | 96° |
| 2026-05-05 05:47 | 47.46251 | 8.55536 | 1410 ft | 25 kts | 95° |
| 2026-05-05 05:47 | 47.46234 | 8.55796 | 1407 ft | 26 kts | 95° |
| 2026-05-05 05:47 | 47.46202 | 8.56016 | 1413 ft | 18 kts | 136° |
| 2026-05-05 05:48 | 47.46111 | 8.56126 | 1413 ft | 16 kts | 137° |
| 2026-05-05 05:48 | 47.46026 | 8.56246 | 1415 ft | 18 kts | 136° |
| 2026-05-05 05:48 | 47.45931 | 8.56375 | 1422 ft | 19 kts | 138° |
| 2026-05-05 05:48 | 47.45827 | 8.56512 | 1424 ft | 21 kts | 135° |
| 2026-05-05 05:49 | 47.45789 | 8.56715 | 1425 ft | 22 kts | 95° |
| 2026-05-05 05:49 | 47.45774 | 8.56940 | 1429 ft | 20 kts | 98° |
| 2026-05-05 05:49 | 47.45714 | 8.57039 | 1430 ft | 11 kts | 181° |
| 2026-05-05 05:49 | 47.45664 | 8.56954 | 1429 ft | 22 kts | 279° |
| 2026-05-05 05:50 | 47.45704 | 8.56406 | 1421 ft | 91 kts | 278° |
| 2026-05-05 05:50 | 47.45798 | 8.55122 | 1401 ft | 154 kts | 276° |
| 2026-05-05 05:50 | 47.45915 | 8.53473 | 1835 ft | 162 kts | 276° |
| 2026-05-05 05:50 | 47.46024 | 8.51796 | 2491 ft | 165 kts | 275° |
| 2026-05-05 05:51 | 47.46147 | 8.50015 | 2877 ft | 184 kts | 276° |
| 2026-05-05 05:51 | 47.46270 | 8.48039 | 3255 ft | 205 kts | 270° |
| 2026-05-05 05:51 | 47.45913 | 8.45928 | 3735 ft | 221 kts | 240° |
| 2026-05-05 05:51 | 47.44790 | 8.44248 | 4113 ft | 243 kts | 210° |
| 2026-05-05 05:52 | 47.43203 | 8.43121 | 4566 ft | 263 kts | 208° |
| 2026-05-05 05:52 | 47.41855 | 8.41232 | 5200 ft | 273 kts | 234° |
| 2026-05-05 05:52 | 47.40795 | 8.38882 | 6075 ft | 276 kts | 236° |
| 2026-05-05 05:52 | 47.39738 | 8.36502 | 6920 ft | 277 kts | 236° |
| 2026-05-05 05:53 | 47.38721 | 8.34136 | 7720 ft | 278 kts | 240° |
| 2026-05-05 05:53 | 47.37814 | 8.31581 | 8534 ft | 281 kts | 242° |
| 2026-05-05 05:53 | 47.36915 | 8.28990 | 9305 ft | 284 kts | 242° |
| 2026-05-05 05:53 | 47.36314 | 8.27265 | 9827 ft | 286 kts | 241° |
| 2026-05-05 05:54 | 47.35064 | 8.23711 | 10389 ft | 305 kts | 241° |
| 2026-05-05 05:54 | 47.34051 | 8.20847 | 10675 ft | 324 kts | 241° |
| 2026-05-05 05:54 | 47.32977 | 8.17817 | 10919 ft | 343 kts | 240° |
| 2026-05-05 05:54 | 47.32215 | 8.15670 | 11109 ft | 354 kts | 240° |
| 2026-05-05 05:55 | 47.31077 | 8.12464 | 11654 ft | 360 kts | 240° |
| 2026-05-05 05:55 | 47.29910 | 8.09171 | 12378 ft | 362 kts | 240° |
| 2026-05-05 05:55 | 47.28736 | 8.05875 | 13135 ft | 363 kts | 239° |
| 2026-05-05 05:55 | 47.27651 | 8.02484 | 13877 ft | 368 kts | 247° |
| 2026-05-05 05:56 | 47.27133 | 7.98808 | 14482 ft | 376 kts | 263° |
| 2026-05-05 05:56 | 47.27307 | 7.94919 | 15099 ft | 383 kts | 274° |
| 2026-05-05 05:56 | 47.27709 | 7.91018 | 15708 ft | 386 kts | 275° |
| 2026-05-05 05:56 | 47.28122 | 7.87077 | 16303 ft | 389 kts | 275° |
| 2026-05-05 05:57 | 47.28514 | 7.83160 | 16895 ft | 392 kts | 274° |
| 2026-05-05 05:57 | 47.28904 | 7.79154 | 17495 ft | 395 kts | 274° |
| 2026-05-05 05:57 | 47.29290 | 7.75130 | 18087 ft | 398 kts | 274° |
| 2026-05-05 05:57 | 47.29675 | 7.71077 | 18608 ft | 401 kts | 274° |
| 2026-05-05 05:58 | 47.30059 | 7.66984 | 19124 ft | 404 kts | 274° |
| 2026-05-05 05:58 | 47.30506 | 7.62879 | 19623 ft | 408 kts | 279° |
| 2026-05-05 05:58 | 47.31291 | 7.58893 | 20104 ft | 412 kts | 284° |
| 2026-05-05 05:58 | 47.32180 | 7.54855 | 20580 ft | 415 kts | 285° |
| 2026-05-05 05:59 | 47.33078 | 7.50794 | 21020 ft | 417 kts | 285° |
| 2026-05-05 05:59 | 47.33973 | 7.46707 | 21472 ft | 419 kts | 285° |
| 2026-05-05 05:59 | 47.34866 | 7.42589 | 21810 ft | 423 kts | 285° |
| 2026-05-05 05:59 | 47.35765 | 7.38435 | 22162 ft | 425 kts | 285° |
| 2026-05-05 06:00 | 47.36655 | 7.34307 | 22510 ft | 427 kts | 285° |
| 2026-05-05 06:00 | 47.37561 | 7.30111 | 22853 ft | 428 kts | 285° |
| 2026-05-05 06:00 | 47.38470 | 7.25889 | 23282 ft | 431 kts | 285° |
| 2026-05-05 06:00 | 47.39364 | 7.21723 | 23714 ft | 432 kts | 285° |
| 2026-05-05 06:01 | 47.40274 | 7.17476 | 24083 ft | 435 kts | 285° |
| 2026-05-05 06:01 | 47.41054 | 7.13155 | 24435 ft | 436 kts | 280° |
| 2026-05-05 06:01 | 47.41708 | 7.08764 | 24789 ft | 438 kts | 279° |
| 2026-05-05 06:01 | 47.42350 | 7.04345 | 25155 ft | 441 kts | 279° |
| 2026-05-05 06:02 | 47.42993 | 6.99946 | 25495 ft | 444 kts | 279° |
| 2026-05-05 06:02 | 47.43648 | 6.95472 | 25853 ft | 446 kts | 279° |
| 2026-05-05 06:02 | 47.44307 | 6.90968 | 26212 ft | 448 kts | 279° |
| 2026-05-05 06:02 | 47.44965 | 6.86446 | 26568 ft | 451 kts | 279° |
| 2026-05-05 06:03 | 47.45626 | 6.81900 | 26909 ft | 453 kts | 278° |
| 2026-05-05 06:03 | 47.46284 | 6.77341 | 27242 ft | 455 kts | 278° |
| 2026-05-05 06:03 | 47.46948 | 6.72741 | 27586 ft | 457 kts | 278° |
| 2026-05-05 06:03 | 47.47608 | 6.68150 | 27997 ft | 457 kts | 278° |
| 2026-05-05 06:04 | 47.48134 | 6.63571 | 28373 ft | 457 kts | 276° |
| 2026-05-05 06:04 | 47.49115 | 6.59064 | 28712 ft | 465 kts | 292° |
| 2026-05-05 06:04 | 47.50826 | 6.54964 | 29080 ft | 470 kts | 301° |
| 2026-05-05 06:04 | 47.52700 | 6.50997 | 29463 ft | 469 kts | 301° |
| 2026-05-05 06:05 | 47.54507 | 6.46985 | 29845 ft | 468 kts | 299° |
| 2026-05-05 06:05 | 47.56224 | 6.42956 | 30186 ft | 467 kts | 298° |
| 2026-05-05 06:05 | 47.57920 | 6.38846 | 30527 ft | 466 kts | 297° |
| 2026-05-05 06:05 | 47.59600 | 6.34737 | 30852 ft | 465 kts | 297° |
| 2026-05-05 06:06 | 47.61276 | 6.30627 | 31177 ft | 464 kts | 296° |
| 2026-05-05 06:06 | 47.62948 | 6.26533 | 31509 ft | 464 kts | 296° |
| 2026-05-05 06:06 | 47.64597 | 6.22496 | 31865 ft | 462 kts | 296° |
| 2026-05-05 06:06 | 47.66269 | 6.18404 | 32213 ft | 461 kts | 296° |
| 2026-05-05 06:07 | 47.67927 | 6.14337 | 32554 ft | 460 kts | 295° |
| 2026-05-05 06:07 | 47.69576 | 6.10280 | 32873 ft | 458 kts | 295° |
| 2026-05-05 06:07 | 47.71222 | 6.06223 | 33167 ft | 457 kts | 295° |
| 2026-05-05 06:07 | 47.72859 | 6.02185 | 33438 ft | 456 kts | 295° |
| 2026-05-05 06:08 | 47.74474 | 5.98197 | 33680 ft | 455 kts | 295° |
| 2026-05-05 06:08 | 47.76108 | 5.94157 | 33891 ft | 455 kts | 295° |
| 2026-05-05 06:08 | 47.79371 | 5.86083 | 33927 ft | 456 kts | 295° |
| 2026-05-05 06:09 | 47.82609 | 5.78020 | 33892 ft | 456 kts | 294° |
| 2026-05-05 06:09 | 47.85866 | 5.69892 | 33893 ft | 456 kts | 294° |
| 2026-05-05 06:10 | 47.89118 | 5.61757 | 33887 ft | 455 kts | 294° |
| 2026-05-05 06:10 | 47.92343 | 5.53644 | 33882 ft | 454 kts | 294° |
| 2026-05-05 06:11 | 47.95571 | 5.45527 | 33888 ft | 459 kts | 294° |
| 2026-05-05 06:11 | 47.98811 | 5.37363 | 33882 ft | 460 kts | 294° |
| 2026-05-05 06:12 | 48.02066 | 5.29136 | 33881 ft | 460 kts | 294° |
| 2026-05-05 06:12 | 48.05312 | 5.20890 | 33877 ft | 460 kts | 294° |
| 2026-05-05 06:13 | 48.08533 | 5.12674 | 33878 ft | 460 kts | 294° |
| 2026-05-05 06:13 | 48.11779 | 5.04366 | 33874 ft | 463 kts | 294° |
| 2026-05-05 06:14 | 48.15041 | 4.96009 | 33864 ft | 464 kts | 294° |
| 2026-05-05 06:14 | 48.18279 | 4.87703 | 33861 ft | 464 kts | 294° |
| 2026-05-05 06:15 | 48.21523 | 4.79315 | 33867 ft | 464 kts | 294° |
| 2026-05-05 06:15 | 48.24757 | 4.70930 | 33889 ft | 464 kts | 294° |
| 2026-05-05 06:16 | 48.28135 | 4.62643 | 33860 ft | 471 kts | 302° |
| 2026-05-05 06:16 | 48.32475 | 4.55209 | 33860 ft | 475 kts | 307° |
| 2026-05-05 06:17 | 48.36861 | 4.47862 | 33860 ft | 473 kts | 306° |
| 2026-05-05 06:17 | 48.41280 | 4.40398 | 33866 ft | 481 kts | 306° |
| 2026-05-05 06:18 | 48.45749 | 4.32815 | 33868 ft | 485 kts | 306° |
| 2026-05-05 06:18 | 48.50199 | 4.25256 | 33876 ft | 484 kts | 307° |
| 2026-05-05 06:19 | 48.54671 | 4.17611 | 33869 ft | 484 kts | 307° |
| 2026-05-05 06:19 | 48.59130 | 4.09988 | 33870 ft | 483 kts | 306° |
| 2026-05-05 06:20 | 48.63544 | 4.02426 | 33870 ft | 482 kts | 306° |
| 2026-05-05 06:20 | 48.67998 | 3.94789 | 33869 ft | 482 kts | 306° |
| 2026-05-05 06:21 | 48.72412 | 3.87217 | 33867 ft | 483 kts | 308° |
| 2026-05-05 06:21 | 48.77215 | 3.80005 | 33870 ft | 485 kts | 311° |
| 2026-05-05 06:22 | 48.82046 | 3.72836 | 33868 ft | 485 kts | 310° |
| 2026-05-05 06:22 | 48.86828 | 3.65679 | 33868 ft | 485 kts | 310° |
| 2026-05-05 06:23 | 48.91635 | 3.58458 | 33864 ft | 485 kts | 310° |
| 2026-05-05 06:23 | 48.96437 | 3.51239 | 33881 ft | 485 kts | 310° |
| 2026-05-05 06:24 | 49.01223 | 3.44021 | 33866 ft | 483 kts | 311° |
| 2026-05-05 06:24 | 49.05973 | 3.36852 | 33872 ft | 481 kts | 311° |
| 2026-05-05 06:25 | 49.10722 | 3.29663 | 33865 ft | 481 kts | 311° |
| 2026-05-05 06:25 | 49.15434 | 3.22500 | 33870 ft | 481 kts | 311° |
| 2026-05-05 06:26 | 49.20174 | 3.15286 | 33875 ft | 480 kts | 311° |
| 2026-05-05 06:26 | 49.24911 | 3.08053 | 33899 ft | 481 kts | 311° |
| 2026-05-05 06:27 | 49.32007 | 2.97201 | 33881 ft | 479 kts | 311° |
| 2026-05-05 06:28 | 49.36700 | 2.90018 | 33873 ft | 479 kts | 310° |
| 2026-05-05 06:28 | 49.41420 | 2.82735 | 33872 ft | 479 kts | 310° |
| 2026-05-05 06:29 | 49.46092 | 2.75495 | 33878 ft | 479 kts | 310° |
| 2026-05-05 06:29 | 49.50789 | 2.68213 | 33907 ft | 478 kts | 310° |
| 2026-05-05 06:30 | 49.55460 | 2.60950 | 33889 ft | 477 kts | 310° |
| 2026-05-05 06:30 | 49.60114 | 2.53737 | 33887 ft | 478 kts | 313° |
| 2026-05-05 06:31 | 49.65381 | 2.47328 | 33894 ft | 481 kts | 319° |
| 2026-05-05 06:31 | 49.70695 | 2.41119 | 33897 ft | 481 kts | 319° |
| 2026-05-05 06:32 | 49.76028 | 2.34847 | 33892 ft | 480 kts | 319° |
| 2026-05-05 06:32 | 49.81336 | 2.28580 | 33902 ft | 480 kts | 319° |
| 2026-05-05 06:33 | 49.86635 | 2.22309 | 33918 ft | 479 kts | 319° |
| 2026-05-05 06:33 | 49.91926 | 2.16024 | 33908 ft | 478 kts | 319° |
| 2026-05-05 06:34 | 49.97181 | 2.09772 | 33915 ft | 476 kts | 318° |
| 2026-05-05 06:34 | 50.02421 | 2.03495 | 33915 ft | 475 kts | 318° |
| 2026-05-05 06:35 | 50.07682 | 1.97214 | 33923 ft | 475 kts | 318° |
| 2026-05-05 06:35 | 50.12896 | 1.90963 | 33923 ft | 475 kts | 318° |
| 2026-05-05 06:36 | 50.18032 | 1.84493 | 33924 ft | 472 kts | 312° |
| 2026-05-05 06:36 | 50.22714 | 1.77400 | 33940 ft | 466 kts | 311° |
| 2026-05-05 06:37 | 50.27355 | 1.70306 | 33934 ft | 466 kts | 311° |
| 2026-05-05 06:37 | 50.31956 | 1.63264 | 33934 ft | 464 kts | 311° |
| 2026-05-05 06:38 | 50.36567 | 1.56200 | 33934 ft | 460 kts | 311° |
| 2026-05-05 06:38 | 50.41108 | 1.49214 | 33937 ft | 458 kts | 311° |
| 2026-05-05 06:39 | 50.45642 | 1.42219 | 33936 ft | 458 kts | 311° |
| 2026-05-05 06:39 | 50.50138 | 1.35148 | 33708 ft | 455 kts | 309° |
| 2026-05-05 06:39 | 50.52300 | 1.31492 | 33358 ft | 455 kts | 308° |
| 2026-05-05 06:40 | 50.54450 | 1.27830 | 32992 ft | 456 kts | 308° |
| 2026-05-05 06:40 | 50.56593 | 1.24180 | 32321 ft | 453 kts | 309° |
| 2026-05-05 06:40 | 50.58792 | 1.20598 | 31510 ft | 456 kts | 311° |
| 2026-05-05 06:40 | 50.61018 | 1.17090 | 30708 ft | 457 kts | 311° |
| 2026-05-05 06:41 | 50.63267 | 1.13547 | 29884 ft | 458 kts | 311° |
| 2026-05-05 06:41 | 50.65529 | 1.09973 | 28938 ft | 459 kts | 311° |
| 2026-05-05 06:41 | 50.67791 | 1.06391 | 28056 ft | 460 kts | 312° |
| 2026-05-05 06:41 | 50.70069 | 1.02774 | 27187 ft | 465 kts | 312° |
| 2026-05-05 06:42 | 50.72333 | 0.99177 | 26317 ft | 465 kts | 313° |
| 2026-05-05 06:42 | 50.74610 | 0.95560 | 25518 ft | 463 kts | 313° |
| 2026-05-05 06:42 | 50.76875 | 0.91942 | 24765 ft | 461 kts | 313° |
| 2026-05-05 06:42 | 50.79132 | 0.88347 | 24026 ft | 460 kts | 314° |
| 2026-05-05 06:43 | 50.81383 | 0.84756 | 23256 ft | 458 kts | 314° |
| 2026-05-05 06:43 | 50.83615 | 0.81184 | 22446 ft | 455 kts | 314° |
| 2026-05-05 06:43 | 50.85810 | 0.77669 | 21670 ft | 453 kts | 314° |
| 2026-05-05 06:43 | 50.88021 | 0.74121 | 20900 ft | 450 kts | 314° |
| 2026-05-05 06:44 | 50.90218 | 0.70589 | 20170 ft | 447 kts | 314° |
| 2026-05-05 06:44 | 50.91665 | 0.68264 | 19685 ft | 445 kts | 314° |
| 2026-05-05 06:44 | 50.94541 | 0.63634 | 18777 ft | 441 kts | 314° |
| 2026-05-05 06:44 | 50.96690 | 0.60173 | 18119 ft | 438 kts | 314° |
| 2026-05-05 06:45 | 50.98818 | 0.56733 | 17379 ft | 433 kts | 314° |
| 2026-05-05 06:45 | 51.00211 | 0.54477 | 16883 ft | 428 kts | 314° |
| 2026-05-05 06:45 | 51.02293 | 0.51111 | 16159 ft | 422 kts | 314° |
| 2026-05-05 06:45 | 51.04990 | 0.46739 | 15230 ft | 414 kts | 314° |
| 2026-05-05 06:46 | 51.06319 | 0.44583 | 14781 ft | 410 kts | 315° |
| 2026-05-05 06:46 | 51.08347 | 0.41447 | 14115 ft | 404 kts | 316° |
| 2026-05-05 06:46 | 51.10368 | 0.38367 | 13351 ft | 400 kts | 316° |
| 2026-05-05 06:46 | 51.12363 | 0.35324 | 12606 ft | 395 kts | 316° |
| 2026-05-05 06:47 | 51.14335 | 0.32308 | 11907 ft | 389 kts | 316° |
| 2026-05-05 06:47 | 51.16265 | 0.29357 | 11480 ft | 378 kts | 316° |
| 2026-05-05 06:47 | 51.18125 | 0.26506 | 11214 ft | 363 kts | 316° |
| 2026-05-05 06:47 | 51.19904 | 0.23771 | 10991 ft | 348 kts | 316° |
| 2026-05-05 06:48 | 51.21596 | 0.21174 | 10800 ft | 334 kts | 316° |
| 2026-05-05 06:48 | 51.23231 | 0.18668 | 10615 ft | 319 kts | 316° |
| 2026-05-05 06:48 | 51.24808 | 0.16247 | 10429 ft | 306 kts | 316° |
| 2026-05-05 06:48 | 51.26309 | 0.13942 | 10267 ft | 293 kts | 316° |
| 2026-05-05 06:49 | 51.27764 | 0.11698 | 9906 ft | 288 kts | 316° |
| 2026-05-05 06:49 | 51.29188 | 0.09501 | 9430 ft | 287 kts | 316° |
| 2026-05-05 06:49 | 51.30620 | 0.07287 | 8954 ft | 285 kts | 316° |
| 2026-05-05 06:49 | 51.32038 | 0.05086 | 8560 ft | 281 kts | 314° |
| 2026-05-05 06:50 | 51.33119 | 0.02528 | 8087 ft | 280 kts | 289° |
| 2026-05-05 06:50 | 51.33423 | -0.00547 | 7616 ft | 280 kts | 275° |
| 2026-05-05 06:50 | 51.33525 | -0.03653 | 7210 ft | 278 kts | 274° |
| 2026-05-05 06:50 | 51.33627 | -0.06696 | 6959 ft | 269 kts | 275° |
| 2026-05-05 06:51 | 51.33743 | -0.09645 | 6857 ft | 270 kts | 275° |
| 2026-05-05 06:51 | 51.33871 | -0.12620 | 6852 ft | 273 kts | 275° |
| 2026-05-05 06:51 | 51.34006 | -0.15694 | 6862 ft | 272 kts | 275° |
| 2026-05-05 06:51 | 51.34142 | -0.18713 | 6871 ft | 271 kts | 276° |
| 2026-05-05 06:52 | 51.34279 | -0.21726 | 6880 ft | 272 kts | 275° |
| 2026-05-05 06:52 | 51.34414 | -0.24708 | 6879 ft | 271 kts | 276° |
| 2026-05-05 06:52 | 51.34550 | -0.27709 | 6877 ft | 270 kts | 276° |
| 2026-05-05 06:52 | 51.34687 | -0.30714 | 6887 ft | 270 kts | 275° |
| 2026-05-05 06:53 | 51.34825 | -0.33716 | 6886 ft | 271 kts | 275° |
| 2026-05-05 06:53 | 51.34961 | -0.36737 | 6886 ft | 271 kts | 276° |
| 2026-05-05 06:53 | 51.35095 | -0.39710 | 6884 ft | 271 kts | 275° |
| 2026-05-05 06:53 | 51.35230 | -0.42726 | 6886 ft | 271 kts | 275° |
| 2026-05-05 06:54 | 51.35366 | -0.45761 | 6887 ft | 272 kts | 275° |
| 2026-05-05 06:54 | 51.35500 | -0.48784 | 6881 ft | 272 kts | 276° |
| 2026-05-05 06:54 | 51.35630 | -0.51795 | 6883 ft | 271 kts | 276° |
| 2026-05-05 06:54 | 51.35757 | -0.54779 | 6619 ft | 267 kts | 275° |
| 2026-05-05 06:55 | 51.35882 | -0.57742 | 6189 ft | 267 kts | 275° |
| 2026-05-05 06:55 | 51.36006 | -0.60708 | 5699 ft | 266 kts | 276° |
| 2026-05-05 06:55 | 51.36128 | -0.63692 | 4993 ft | 272 kts | 276° |
| 2026-05-05 06:55 | 51.36242 | -0.66663 | 4477 ft | 268 kts | 276° |
| 2026-05-05 06:56 | 51.36467 | -0.69585 | 4043 ft | 260 kts | 288° |
| 2026-05-05 06:56 | 51.37153 | -0.72200 | 3627 ft | 251 kts | 305° |
| 2026-05-05 06:56 | 51.38156 | -0.74400 | 3299 ft | 238 kts | 317° |
| 2026-05-05 06:56 | 51.39457 | -0.75846 | 3006 ft | 222 kts | 338° |
| 2026-05-05 06:57 | 51.40898 | -0.76413 | 2827 ft | 208 kts | 359° |
| 2026-05-05 06:57 | 51.42297 | -0.76412 | 2667 ft | 193 kts | 4° |
| 2026-05-05 06:57 | 51.43483 | -0.75753 | 2560 ft | 175 kts | 37° |
| 2026-05-05 06:57 | 51.44154 | -0.74227 | 2436 ft | 166 kts | 60° |
| 2026-05-05 06:58 | 51.44671 | -0.72511 | 2319 ft | 172 kts | 60° |
| 2026-05-05 06:58 | 51.45197 | -0.70785 | 2200 ft | 172 kts | 60° |
| 2026-05-05 06:58 | 51.45724 | -0.69053 | 2068 ft | 172 kts | 60° |
| 2026-05-05 06:58 | 51.46251 | -0.67334 | 1940 ft | 171 kts | 60° |
| 2026-05-05 06:59 | 51.46775 | -0.65650 | 1859 ft | 171 kts | 60° |
| 2026-05-05 06:59 | 51.47303 | -0.63934 | 1860 ft | 170 kts | 62° |
| 2026-05-05 06:59 | 51.47616 | -0.62220 | 1829 ft | 151 kts | 76° |
| 2026-05-05 06:59 | 51.47698 | -0.60573 | 1647 ft | 148 kts | 82° |
| 2026-05-05 07:00 | 51.47712 | -0.58923 | 1428 ft | 148 kts | 84° |
| 2026-05-05 07:00 | 51.47720 | -0.57259 | 1221 ft | 149 kts | 85° |
| 2026-05-05 07:00 | 51.47727 | -0.55624 | 1007 ft | 148 kts | 86° |
| 2026-05-05 07:00 | 51.47733 | -0.53970 | 803 ft | 148 kts | 87° |
| 2026-05-05 07:01 | 51.47740 | -0.52319 | 597 ft | 148 kts | 88° |
| 2026-05-05 07:01 | 51.47746 | -0.50680 | 372 ft | 146 kts | 88° |
| 2026-05-05 07:01 | 51.47750 | -0.49044 | 198 ft | 146 kts | 88° |
| 2026-05-05 07:01 | 51.47753 | -0.47965 | 102 ft | 146 kts | 87° |